sensor_id;sensor_type;location;lat;lon;timestamp;P1;durP1;ratioP1;P2;durP2;ratioP2
6342;SDS011;3204;42.698;23.298;2024-01-10T00:01:48;6.50;;;5.87;;
6342;SDS011;3204;42.698;23.298;2024-01-10T00:04:13;5.17;;;4.87;;
6342;SDS011;3204;42.698;23.298;2024-01-10T00:06:41;5.53;;;5.17;;
6342;SDS011;3204;42.698;23.298;2024-01-10T00:09:07;5.23;;;4.83;;
6342;SDS011;3204;42.698;23.298;2024-01-10T00:11:33;5.03;;;4.63;;
6342;SDS011;3204;42.698;23.298;2024-01-10T00:13:58;5.10;;;4.63;;
6342;SDS011;3204;42.698;23.298;2024-01-10T00:16:27;4.67;;;4.27;;
6342;SDS011;3204;42.698;23.298;2024-01-10T00:18:53;5.20;;;4.90;;
6342;SDS011;3204;42.698;23.298;2024-01-10T00:21:18;5.13;;;4.80;;
6342;SDS011;3204;42.698;23.298;2024-01-10T00:23:43;6.57;;;5.97;;
6342;SDS011;3204;42.698;23.298;2024-01-10T00:26:09;6.37;;;5.87;;
6342;SDS011;3204;42.698;23.298;2024-01-10T00:28:34;6.30;;;5.80;;
6342;SDS011;3204;42.698;23.298;2024-01-10T00:31:00;5.67;;;5.17;;
6342;SDS011;3204;42.698;23.298;2024-01-10T00:33:26;6.90;;;6.30;;
6342;SDS011;3204;42.698;23.298;2024-01-10T00:35:51;6.30;;;5.90;;
6342;SDS011;3204;42.698;23.298;2024-01-10T00:38:17;5.70;;;5.30;;
6342;SDS011;3204;42.698;23.298;2024-01-10T00:40:42;5.93;;;5.57;;
6342;SDS011;3204;42.698;23.298;2024-01-10T00:43:07;6.30;;;5.90;;
6342;SDS011;3204;42.698;23.298;2024-01-10T00:45:33;6.00;;;4.60;;
6342;SDS011;3204;42.698;23.298;2024-01-10T00:47:58;5.97;;;5.57;;
6342;SDS011;3204;42.698;23.298;2024-01-10T00:50:24;6.10;;;5.73;;
6342;SDS011;3204;42.698;23.298;2024-01-10T00:52:49;6.97;;;6.37;;
6342;SDS011;3204;42.698;23.298;2024-01-10T00:55:15;6.00;;;5.60;;
6342;SDS011;3204;42.698;23.298;2024-01-10T00:57:40;6.67;;;6.17;;
6342;SDS011;3204;42.698;23.298;2024-01-10T01:00:06;5.67;;;5.37;;
6342;SDS011;3204;42.698;23.298;2024-01-10T01:02:32;5.37;;;5.07;;
6342;SDS011;3204;42.698;23.298;2024-01-10T01:04:58;9.80;;;4.87;;
6342;SDS011;3204;42.698;23.298;2024-01-10T01:07:23;5.40;;;5.00;;
6342;SDS011;3204;42.698;23.298;2024-01-10T01:09:48;4.60;;;4.30;;
6342;SDS011;3204;42.698;23.298;2024-01-10T01:12:14;5.47;;;5.13;;
6342;SDS011;3204;42.698;23.298;2024-01-10T01:14:39;4.77;;;4.47;;
6342;SDS011;3204;42.698;23.298;2024-01-10T01:17:05;5.80;;;5.30;;
6342;SDS011;3204;42.698;23.298;2024-01-10T01:19:30;5.30;;;4.80;;
6342;SDS011;3204;42.698;23.298;2024-01-10T01:21:55;5.30;;;4.90;;
6342;SDS011;3204;42.698;23.298;2024-01-10T01:24:21;5.50;;;5.00;;
6342;SDS011;3204;42.698;23.298;2024-01-10T01:26:46;4.93;;;4.63;;
6342;SDS011;3204;42.698;23.298;2024-01-10T01:29:11;5.03;;;4.73;;
6342;SDS011;3204;42.698;23.298;2024-01-10T01:31:37;4.93;;;4.53;;
6342;SDS011;3204;42.698;23.298;2024-01-10T01:34:03;4.73;;;4.43;;
6342;SDS011;3204;42.698;23.298;2024-01-10T01:36:28;5.07;;;4.77;;
6342;SDS011;3204;42.698;23.298;2024-01-10T01:38:54;5.03;;;4.63;;
6342;SDS011;3204;42.698;23.298;2024-01-10T01:41:19;5.10;;;4.77;;
6342;SDS011;3204;42.698;23.298;2024-01-10T01:43:44;5.57;;;5.10;;
6342;SDS011;3204;42.698;23.298;2024-01-10T01:46:10;4.90;;;4.43;;
6342;SDS011;3204;42.698;23.298;2024-01-10T01:48:36;5.03;;;4.70;;
6342;SDS011;3204;42.698;23.298;2024-01-10T01:51:04;4.77;;;4.50;;
6342;SDS011;3204;42.698;23.298;2024-01-10T01:53:31;4.43;;;4.13;;
6342;SDS011;3204;42.698;23.298;2024-01-10T01:56:00;4.30;;;3.97;;
6342;SDS011;3204;42.698;23.298;2024-01-10T01:58:28;3.87;;;3.67;;
6342;SDS011;3204;42.698;23.298;2024-01-10T02:00:54;4.10;;;3.90;;
6342;SDS011;3204;42.698;23.298;2024-01-10T02:03:20;4.30;;;3.90;;
6342;SDS011;3204;42.698;23.298;2024-01-10T02:05:46;4.03;;;3.83;;
6342;SDS011;3204;42.698;23.298;2024-01-10T02:08:11;3.97;;;3.60;;
6342;SDS011;3204;42.698;23.298;2024-01-10T02:10:37;3.80;;;3.60;;
6342;SDS011;3204;42.698;23.298;2024-01-10T02:13:02;3.17;;;3.07;;
6342;SDS011;3204;42.698;23.298;2024-01-10T02:15:28;3.20;;;3.00;;
6342;SDS011;3204;42.698;23.298;2024-01-10T02:17:54;3.10;;;2.90;;
6342;SDS011;3204;42.698;23.298;2024-01-10T02:20:19;3.40;;;3.20;;
6342;SDS011;3204;42.698;23.298;2024-01-10T02:22:46;3.17;;;2.97;;
6342;SDS011;3204;42.698;23.298;2024-01-10T02:25:12;3.30;;;3.10;;
6342;SDS011;3204;42.698;23.298;2024-01-10T02:27:39;3.40;;;3.20;;
6342;SDS011;3204;42.698;23.298;2024-01-10T02:30:06;2.97;;;2.80;;
6342;SDS011;3204;42.698;23.298;2024-01-10T02:32:33;3.07;;;2.87;;
6342;SDS011;3204;42.698;23.298;2024-01-10T02:34:59;3.60;;;3.00;;
6342;SDS011;3204;42.698;23.298;2024-01-10T02:37:24;3.50;;;3.20;;
6342;SDS011;3204;42.698;23.298;2024-01-10T02:39:50;3.10;;;2.90;;
6342;SDS011;3204;42.698;23.298;2024-01-10T02:42:16;4.00;;;3.33;;
6342;SDS011;3204;42.698;23.298;2024-01-10T02:44:42;3.17;;;3.00;;
6342;SDS011;3204;42.698;23.298;2024-01-10T02:47:07;3.23;;;3.03;;
6342;SDS011;3204;42.698;23.298;2024-01-10T02:49:33;3.70;;;3.50;;
6342;SDS011;3204;42.698;23.298;2024-01-10T02:51:59;3.70;;;3.07;;
6342;SDS011;3204;42.698;23.298;2024-01-10T02:54:25;3.13;;;2.93;;
6342;SDS011;3204;42.698;23.298;2024-01-10T02:56:50;3.40;;;3.20;;
6342;SDS011;3204;42.698;23.298;2024-01-10T02:59:16;4.50;;;3.20;;
6342;SDS011;3204;42.698;23.298;2024-01-10T03:01:41;3.47;;;3.27;;
6342;SDS011;3204;42.698;23.298;2024-01-10T03:04:07;4.03;;;2.80;;
6342;SDS011;3204;42.698;23.298;2024-01-10T03:06:32;3.17;;;2.90;;
6342;SDS011;3204;42.698;23.298;2024-01-10T03:08:58;3.27;;;3.00;;
6342;SDS011;3204;42.698;23.298;2024-01-10T03:11:23;3.17;;;2.83;;
6342;SDS011;3204;42.698;23.298;2024-01-10T03:13:50;3.20;;;3.00;;
6342;SDS011;3204;42.698;23.298;2024-01-10T03:16:25;3.40;;;3.07;;
6342;SDS011;3204;42.698;23.298;2024-01-10T03:18:50;2.77;;;2.67;;
6342;SDS011;3204;42.698;23.298;2024-01-10T03:21:15;3.13;;;2.97;;
6342;SDS011;3204;42.698;23.298;2024-01-10T03:23:47;3.40;;;3.10;;
6342;SDS011;3204;42.698;23.298;2024-01-10T03:26:13;2.83;;;2.63;;
6342;SDS011;3204;42.698;23.298;2024-01-10T03:28:38;3.27;;;3.17;;
6342;SDS011;3204;42.698;23.298;2024-01-10T03:31:04;2.60;;;2.50;;
6342;SDS011;3204;42.698;23.298;2024-01-10T03:33:29;2.87;;;2.67;;
6342;SDS011;3204;42.698;23.298;2024-01-10T03:35:55;3.23;;;2.93;;
6342;SDS011;3204;42.698;23.298;2024-01-10T03:38:20;4.73;;;3.00;;
6342;SDS011;3204;42.698;23.298;2024-01-10T03:40:45;3.30;;;3.10;;
6342;SDS011;3204;42.698;23.298;2024-01-10T03:43:11;3.17;;;2.57;;
6342;SDS011;3204;42.698;23.298;2024-01-10T03:45:37;5.67;;;3.27;;
6342;SDS011;3204;42.698;23.298;2024-01-10T03:48:03;5.13;;;3.50;;
6342;SDS011;3204;42.698;23.298;2024-01-10T03:50:28;4.33;;;2.80;;
6342;SDS011;3204;42.698;23.298;2024-01-10T03:52:54;2.87;;;2.77;;
6342;SDS011;3204;42.698;23.298;2024-01-10T03:55:19;3.93;;;3.63;;
6342;SDS011;3204;42.698;23.298;2024-01-10T03:57:44;5.57;;;3.97;;
6342;SDS011;3204;42.698;23.298;2024-01-10T04:00:10;3.90;;;3.60;;
6342;SDS011;3204;42.698;23.298;2024-01-10T04:02:36;3.27;;;3.07;;
6342;SDS011;3204;42.698;23.298;2024-01-10T04:05:05;4.07;;;3.50;;
6342;SDS011;3204;42.698;23.298;2024-01-10T04:07:39;4.13;;;3.83;;
6342;SDS011;3204;42.698;23.298;2024-01-10T04:10:06;4.40;;;4.10;;
6342;SDS011;3204;42.698;23.298;2024-01-10T04:12:35;4.23;;;3.83;;
6342;SDS011;3204;42.698;23.298;2024-01-10T04:15:02;3.50;;;3.30;;
6342;SDS011;3204;42.698;23.298;2024-01-10T04:17:28;3.90;;;3.70;;
6342;SDS011;3204;42.698;23.298;2024-01-10T04:19:53;4.50;;;4.17;;
6342;SDS011;3204;42.698;23.298;2024-01-10T04:22:19;4.00;;;3.40;;
6342;SDS011;3204;42.698;23.298;2024-01-10T04:24:44;3.83;;;3.53;;
6342;SDS011;3204;42.698;23.298;2024-01-10T04:27:09;4.60;;;4.30;;
6342;SDS011;3204;42.698;23.298;2024-01-10T04:29:35;6.73;;;4.70;;
6342;SDS011;3204;42.698;23.298;2024-01-10T04:32:00;5.80;;;5.10;;
6342;SDS011;3204;42.698;23.298;2024-01-10T04:34:25;5.63;;;4.53;;
6342;SDS011;3204;42.698;23.298;2024-01-10T04:36:51;4.60;;;4.30;;
6342;SDS011;3204;42.698;23.298;2024-01-10T04:39:16;5.20;;;4.80;;
6342;SDS011;3204;42.698;23.298;2024-01-10T04:41:41;5.20;;;4.70;;
6342;SDS011;3204;42.698;23.298;2024-01-10T04:44:07;5.10;;;4.70;;
6342;SDS011;3204;42.698;23.298;2024-01-10T04:46:32;9.37;;;5.57;;
6342;SDS011;3204;42.698;23.298;2024-01-10T04:48:58;7.70;;;6.40;;
6342;SDS011;3204;42.698;23.298;2024-01-10T04:51:24;11.73;;;7.43;;
6342;SDS011;3204;42.698;23.298;2024-01-10T04:53:49;12.70;;;7.50;;
6342;SDS011;3204;42.698;23.298;2024-01-10T04:56:15;7.80;;;6.30;;
6342;SDS011;3204;42.698;23.298;2024-01-10T04:58:40;6.40;;;5.80;;
6342;SDS011;3204;42.698;23.298;2024-01-10T05:01:05;5.10;;;4.50;;
6342;SDS011;3204;42.698;23.298;2024-01-10T05:03:31;4.27;;;3.87;;
6342;SDS011;3204;42.698;23.298;2024-01-10T05:05:56;5.63;;;4.30;;
6342;SDS011;3204;42.698;23.298;2024-01-10T05:08:22;4.90;;;3.50;;
6342;SDS011;3204;42.698;23.298;2024-01-10T05:10:47;3.63;;;3.20;;
6342;SDS011;3204;42.698;23.298;2024-01-10T05:13:12;4.03;;;3.73;;
6342;SDS011;3204;42.698;23.298;2024-01-10T05:15:38;4.20;;;3.43;;
6342;SDS011;3204;42.698;23.298;2024-01-10T05:18:04;4.60;;;4.20;;
6342;SDS011;3204;42.698;23.298;2024-01-10T05:20:29;6.17;;;4.37;;
6342;SDS011;3204;42.698;23.298;2024-01-10T05:22:55;4.57;;;3.73;;
6342;SDS011;3204;42.698;23.298;2024-01-10T05:25:23;3.80;;;3.50;;
6342;SDS011;3204;42.698;23.298;2024-01-10T05:27:49;3.90;;;3.60;;
6342;SDS011;3204;42.698;23.298;2024-01-10T05:30:14;3.70;;;3.37;;
6342;SDS011;3204;42.698;23.298;2024-01-10T05:32:40;4.13;;;3.83;;
6342;SDS011;3204;42.698;23.298;2024-01-10T05:35:05;4.07;;;3.73;;
6342;SDS011;3204;42.698;23.298;2024-01-10T05:37:31;4.23;;;3.70;;
6342;SDS011;3204;42.698;23.298;2024-01-10T05:39:58;5.27;;;4.70;;
6342;SDS011;3204;42.698;23.298;2024-01-10T05:42:23;4.87;;;4.57;;
6342;SDS011;3204;42.698;23.298;2024-01-10T05:44:49;4.40;;;4.10;;
6342;SDS011;3204;42.698;23.298;2024-01-10T05:47:15;4.53;;;4.10;;
6342;SDS011;3204;42.698;23.298;2024-01-10T05:49:40;4.17;;;3.90;;
6342;SDS011;3204;42.698;23.298;2024-01-10T05:52:07;3.90;;;3.60;;
6342;SDS011;3204;42.698;23.298;2024-01-10T05:54:32;4.93;;;4.10;;
6342;SDS011;3204;42.698;23.298;2024-01-10T05:56:58;4.43;;;4.10;;
6342;SDS011;3204;42.698;23.298;2024-01-10T05:59:25;4.17;;;3.83;;
6342;SDS011;3204;42.698;23.298;2024-01-10T06:01:51;4.20;;;3.90;;
6342;SDS011;3204;42.698;23.298;2024-01-10T06:04:17;4.10;;;3.80;;
6342;SDS011;3204;42.698;23.298;2024-01-10T06:06:42;4.10;;;3.80;;
6342;SDS011;3204;42.698;23.298;2024-01-10T06:09:07;4.47;;;3.53;;
6342;SDS011;3204;42.698;23.298;2024-01-10T06:11:40;3.40;;;3.20;;
6342;SDS011;3204;42.698;23.298;2024-01-10T06:14:08;4.03;;;3.60;;
6342;SDS011;3204;42.698;23.298;2024-01-10T06:16:34;3.63;;;3.40;;
6342;SDS011;3204;42.698;23.298;2024-01-10T06:19:00;4.30;;;4.00;;
6342;SDS011;3204;42.698;23.298;2024-01-10T06:21:25;4.43;;;4.13;;
6342;SDS011;3204;42.698;23.298;2024-01-10T06:23:51;5.47;;;5.07;;
6342;SDS011;3204;42.698;23.298;2024-01-10T06:26:16;5.17;;;4.77;;
6342;SDS011;3204;42.698;23.298;2024-01-10T06:28:42;6.53;;;5.93;;
6342;SDS011;3204;42.698;23.298;2024-01-10T06:31:07;8.10;;;7.37;;
6342;SDS011;3204;42.698;23.298;2024-01-10T06:33:33;18.00;;;8.20;;
6342;SDS011;3204;42.698;23.298;2024-01-10T06:35:58;8.63;;;6.33;;
6342;SDS011;3204;42.698;23.298;2024-01-10T06:38:24;5.67;;;5.27;;
6342;SDS011;3204;42.698;23.298;2024-01-10T06:40:49;6.27;;;5.87;;
6342;SDS011;3204;42.698;23.298;2024-01-10T06:43:15;7.10;;;5.13;;
6342;SDS011;3204;42.698;23.298;2024-01-10T06:45:41;5.73;;;5.27;;
6342;SDS011;3204;42.698;23.298;2024-01-10T06:48:07;6.00;;;4.90;;
6342;SDS011;3204;42.698;23.298;2024-01-10T06:50:33;5.57;;;5.17;;
6342;SDS011;3204;42.698;23.298;2024-01-10T06:52:59;5.87;;;5.27;;
6342;SDS011;3204;42.698;23.298;2024-01-10T06:55:24;4.93;;;4.50;;
6342;SDS011;3204;42.698;23.298;2024-01-10T06:57:50;5.87;;;5.30;;
6342;SDS011;3204;42.698;23.298;2024-01-10T07:00:18;5.30;;;4.90;;
6342;SDS011;3204;42.698;23.298;2024-01-10T07:02:46;5.97;;;5.40;;
6342;SDS011;3204;42.698;23.298;2024-01-10T07:05:11;6.37;;;5.53;;
6342;SDS011;3204;42.698;23.298;2024-01-10T07:07:36;9.40;;;4.60;;
6342;SDS011;3204;42.698;23.298;2024-01-10T07:10:02;5.43;;;5.00;;
6342;SDS011;3204;42.698;23.298;2024-01-10T07:12:31;5.23;;;4.80;;
6342;SDS011;3204;42.698;23.298;2024-01-10T07:14:58;8.43;;;5.33;;
6342;SDS011;3204;42.698;23.298;2024-01-10T07:17:23;5.20;;;4.87;;
6342;SDS011;3204;42.698;23.298;2024-01-10T07:19:49;4.30;;;4.00;;
6342;SDS011;3204;42.698;23.298;2024-01-10T07:22:14;4.23;;;3.93;;
6342;SDS011;3204;42.698;23.298;2024-01-10T07:24:40;5.10;;;4.60;;
6342;SDS011;3204;42.698;23.298;2024-01-10T07:27:05;4.53;;;3.93;;
6342;SDS011;3204;42.698;23.298;2024-01-10T07:29:32;4.27;;;3.93;;
6342;SDS011;3204;42.698;23.298;2024-01-10T07:31:59;5.50;;;4.50;;
6342;SDS011;3204;42.698;23.298;2024-01-10T07:34:24;4.37;;;4.00;;
6342;SDS011;3204;42.698;23.298;2024-01-10T07:36:49;4.50;;;4.10;;
6342;SDS011;3204;42.698;23.298;2024-01-10T07:39:15;4.40;;;4.00;;
6342;SDS011;3204;42.698;23.298;2024-01-10T07:41:43;5.50;;;4.13;;
6342;SDS011;3204;42.698;23.298;2024-01-10T07:44:09;4.63;;;4.33;;
6342;SDS011;3204;42.698;23.298;2024-01-10T07:46:34;5.43;;;4.93;;
6342;SDS011;3204;42.698;23.298;2024-01-10T07:49:02;8.73;;;5.83;;
6342;SDS011;3204;42.698;23.298;2024-01-10T07:51:29;6.67;;;5.50;;
6342;SDS011;3204;42.698;23.298;2024-01-10T07:53:54;5.70;;;5.20;;
6342;SDS011;3204;42.698;23.298;2024-01-10T07:56:21;7.40;;;5.63;;
6342;SDS011;3204;42.698;23.298;2024-01-10T07:58:46;12.70;;;7.10;;
6342;SDS011;3204;42.698;23.298;2024-01-10T08:01:11;9.17;;;6.27;;
6342;SDS011;3204;42.698;23.298;2024-01-10T08:03:37;6.20;;;5.60;;
6342;SDS011;3204;42.698;23.298;2024-01-10T08:06:03;7.17;;;4.77;;
6342;SDS011;3204;42.698;23.298;2024-01-10T08:08:28;5.90;;;5.30;;
6342;SDS011;3204;42.698;23.298;2024-01-10T08:10:55;7.83;;;5.83;;
6342;SDS011;3204;42.698;23.298;2024-01-10T08:13:21;11.93;;;6.87;;
6342;SDS011;3204;42.698;23.298;2024-01-10T08:15:46;6.10;;;5.50;;
6342;SDS011;3204;42.698;23.298;2024-01-10T08:18:12;6.13;;;5.53;;
6342;SDS011;3204;42.698;23.298;2024-01-10T08:20:39;5.57;;;5.17;;
6342;SDS011;3204;42.698;23.298;2024-01-10T08:23:04;5.30;;;4.90;;
6342;SDS011;3204;42.698;23.298;2024-01-10T08:25:30;5.37;;;4.87;;
6342;SDS011;3204;42.698;23.298;2024-01-10T08:27:55;7.30;;;5.17;;
6342;SDS011;3204;42.698;23.298;2024-01-10T08:30:22;4.93;;;4.33;;
6342;SDS011;3204;42.698;23.298;2024-01-10T08:32:48;4.10;;;3.80;;
6342;SDS011;3204;42.698;23.298;2024-01-10T08:35:14;5.30;;;4.47;;
6342;SDS011;3204;42.698;23.298;2024-01-10T08:37:40;4.73;;;4.43;;
6342;SDS011;3204;42.698;23.298;2024-01-10T08:40:08;4.67;;;4.37;;
6342;SDS011;3204;42.698;23.298;2024-01-10T08:42:37;4.90;;;4.60;;
6342;SDS011;3204;42.698;23.298;2024-01-10T08:45:05;5.60;;;3.90;;
6342;SDS011;3204;42.698;23.298;2024-01-10T08:47:31;4.53;;;4.03;;
6342;SDS011;3204;42.698;23.298;2024-01-10T08:50:01;4.30;;;3.80;;
6342;SDS011;3204;42.698;23.298;2024-01-10T08:52:27;4.90;;;4.60;;
6342;SDS011;3204;42.698;23.298;2024-01-10T08:54:52;4.70;;;4.40;;
6342;SDS011;3204;42.698;23.298;2024-01-10T08:57:18;4.53;;;4.23;;
6342;SDS011;3204;42.698;23.298;2024-01-10T08:59:43;6.07;;;5.30;;
6342;SDS011;3204;42.698;23.298;2024-01-10T09:02:09;5.93;;;5.07;;
6342;SDS011;3204;42.698;23.298;2024-01-10T09:04:34;5.77;;;4.73;;
6342;SDS011;3204;42.698;23.298;2024-01-10T09:07:00;5.27;;;4.60;;
6342;SDS011;3204;42.698;23.298;2024-01-10T09:09:25;5.80;;;5.30;;
6342;SDS011;3204;42.698;23.298;2024-01-10T09:11:50;5.70;;;5.20;;
6342;SDS011;3204;42.698;23.298;2024-01-10T09:14:16;6.73;;;5.47;;
6342;SDS011;3204;42.698;23.298;2024-01-10T09:16:41;6.30;;;5.80;;
6342;SDS011;3204;42.698;23.298;2024-01-10T09:19:07;10.43;;;7.50;;
6342;SDS011;3204;42.698;23.298;2024-01-10T09:21:32;14.77;;;7.93;;
6342;SDS011;3204;42.698;23.298;2024-01-10T09:23:58;7.40;;;6.80;;
6342;SDS011;3204;42.698;23.298;2024-01-10T09:26:23;10.37;;;6.30;;
6342;SDS011;3204;42.698;23.298;2024-01-10T09:28:49;14.63;;;6.90;;
6342;SDS011;3204;42.698;23.298;2024-01-10T09:31:14;8.30;;;7.13;;
6342;SDS011;3204;42.698;23.298;2024-01-10T09:33:40;6.90;;;6.30;;
6342;SDS011;3204;42.698;23.298;2024-01-10T09:36:05;6.87;;;6.20;;
6342;SDS011;3204;42.698;23.298;2024-01-10T09:38:34;4.93;;;4.50;;
6342;SDS011;3204;42.698;23.298;2024-01-10T09:41:01;6.10;;;5.50;;
6342;SDS011;3204;42.698;23.298;2024-01-10T09:43:29;5.70;;;5.23;;
6342;SDS011;3204;42.698;23.298;2024-01-10T09:45:55;7.43;;;5.33;;
6342;SDS011;3204;42.698;23.298;2024-01-10T09:48:24;7.20;;;5.80;;
6342;SDS011;3204;42.698;23.298;2024-01-10T09:50:50;5.97;;;5.47;;
6342;SDS011;3204;42.698;23.298;2024-01-10T09:53:23;9.30;;;5.23;;
6342;SDS011;3204;42.698;23.298;2024-01-10T09:55:49;6.00;;;5.53;;
6342;SDS011;3204;42.698;23.298;2024-01-10T09:58:15;6.43;;;5.60;;
6342;SDS011;3204;42.698;23.298;2024-01-10T10:00:41;6.10;;;5.50;;
6342;SDS011;3204;42.698;23.298;2024-01-10T10:03:07;4.63;;;4.33;;
6342;SDS011;3204;42.698;23.298;2024-01-10T10:05:37;6.17;;;5.40;;
6342;SDS011;3204;42.698;23.298;2024-01-10T10:08:03;6.20;;;5.60;;
6342;SDS011;3204;42.698;23.298;2024-01-10T10:10:31;8.87;;;5.87;;
6342;SDS011;3204;42.698;23.298;2024-01-10T10:12:57;6.03;;;5.53;;
6342;SDS011;3204;42.698;23.298;2024-01-10T10:15:23;6.50;;;5.30;;
6342;SDS011;3204;42.698;23.298;2024-01-10T10:17:52;8.20;;;6.33;;
6342;SDS011;3204;42.698;23.298;2024-01-10T10:20:25;10.63;;;6.13;;
6342;SDS011;3204;42.698;23.298;2024-01-10T10:25:29;17.67;;;9.13;;
6342;SDS011;3204;42.698;23.298;2024-01-10T10:27:56;10.77;;;8.47;;
6342;SDS011;3204;42.698;23.298;2024-01-10T10:30:22;8.97;;;7.90;;
6342;SDS011;3204;42.698;23.298;2024-01-10T10:32:48;12.17;;;8.07;;
6342;SDS011;3204;42.698;23.298;2024-01-10T10:35:14;8.90;;;8.03;;
6342;SDS011;3204;42.698;23.298;2024-01-10T10:37:39;10.87;;;7.87;;
6342;SDS011;3204;42.698;23.298;2024-01-10T10:40:05;10.13;;;7.63;;
6342;SDS011;3204;42.698;23.298;2024-01-10T10:42:34;10.93;;;8.17;;
6342;SDS011;3204;42.698;23.298;2024-01-10T10:45:02;8.43;;;7.63;;
6342;SDS011;3204;42.698;23.298;2024-01-10T10:47:38;10.03;;;8.20;;
6342;SDS011;3204;42.698;23.298;2024-01-10T10:50:08;9.33;;;8.13;;
6342;SDS011;3204;42.698;23.298;2024-01-10T10:52:40;10.80;;;7.93;;
6342;SDS011;3204;42.698;23.298;2024-01-10T10:55:10;10.40;;;8.40;;
6342;SDS011;3204;42.698;23.298;2024-01-10T10:57:38;9.77;;;8.17;;
6342;SDS011;3204;42.698;23.298;2024-01-10T11:00:05;11.53;;;8.40;;
6342;SDS011;3204;42.698;23.298;2024-01-10T11:02:51;8.37;;;7.57;;
6342;SDS011;3204;42.698;23.298;2024-01-10T11:05:20;9.50;;;7.60;;
6342;SDS011;3204;42.698;23.298;2024-01-10T11:07:47;9.27;;;8.30;;
6342;SDS011;3204;42.698;23.298;2024-01-10T11:16:07;11.47;;;7.93;;
6342;SDS011;3204;42.698;23.298;2024-01-10T11:24:42;18.57;;;9.53;;
6342;SDS011;3204;42.698;23.298;2024-01-10T11:27:14;16.80;;;9.23;;
6342;SDS011;3204;42.698;23.298;2024-01-10T11:29:45;10.87;;;8.80;;
6342;SDS011;3204;42.698;23.298;2024-01-10T11:32:15;12.40;;;9.77;;
6342;SDS011;3204;42.698;23.298;2024-01-10T11:37:39;13.40;;;8.70;;
6342;SDS011;3204;42.698;23.298;2024-01-10T11:40:08;13.20;;;9.00;;
6342;SDS011;3204;42.698;23.298;2024-01-10T11:42:55;14.00;;;8.80;;
6342;SDS011;3204;42.698;23.298;2024-01-10T11:48:00;12.10;;;9.63;;
6342;SDS011;3204;42.698;23.298;2024-01-10T11:50:26;14.00;;;9.57;;
6342;SDS011;3204;42.698;23.298;2024-01-10T11:52:52;12.87;;;9.60;;
6342;SDS011;3204;42.698;23.298;2024-01-10T11:58:23;12.87;;;10.00;;
6342;SDS011;3204;42.698;23.298;2024-01-10T12:00:48;15.30;;;10.10;;
6342;SDS011;3204;42.698;23.298;2024-01-10T12:03:14;15.40;;;10.90;;
6342;SDS011;3204;42.698;23.298;2024-01-10T12:05:42;13.03;;;10.10;;
6342;SDS011;3204;42.698;23.298;2024-01-10T12:08:08;12.17;;;9.70;;
6342;SDS011;3204;42.698;23.298;2024-01-10T12:10:34;15.70;;;10.27;;
6342;SDS011;3204;42.698;23.298;2024-01-10T12:13:03;16.67;;;11.10;;
6342;SDS011;3204;42.698;23.298;2024-01-10T12:15:28;12.43;;;10.60;;
6342;SDS011;3204;42.698;23.298;2024-01-10T12:17:54;16.33;;;11.70;;
6342;SDS011;3204;42.698;23.298;2024-01-10T12:20:20;18.77;;;10.97;;
6342;SDS011;3204;42.698;23.298;2024-01-10T12:22:45;16.33;;;10.30;;
6342;SDS011;3204;42.698;23.298;2024-01-10T12:25:11;15.20;;;10.30;;
6342;SDS011;3204;42.698;23.298;2024-01-10T12:27:36;20.27;;;11.03;;
6342;SDS011;3204;42.698;23.298;2024-01-10T12:30:02;16.40;;;10.67;;
6342;SDS011;3204;42.698;23.298;2024-01-10T12:32:28;14.60;;;11.07;;
6342;SDS011;3204;42.698;23.298;2024-01-10T12:35:03;13.73;;;10.70;;
6342;SDS011;3204;42.698;23.298;2024-01-10T12:37:30;21.00;;;11.37;;
6342;SDS011;3204;42.698;23.298;2024-01-10T12:39:56;16.00;;;11.67;;
6342;SDS011;3204;42.698;23.298;2024-01-10T12:42:22;18.93;;;12.37;;
6342;SDS011;3204;42.698;23.298;2024-01-10T12:44:48;16.60;;;11.37;;
6342;SDS011;3204;42.698;23.298;2024-01-10T12:47:21;12.50;;;10.87;;
6342;SDS011;3204;42.698;23.298;2024-01-10T12:49:48;17.87;;;11.20;;
6342;SDS011;3204;42.698;23.298;2024-01-10T12:52:14;18.40;;;10.97;;
6342;SDS011;3204;42.698;23.298;2024-01-10T12:54:40;16.07;;;11.30;;
6342;SDS011;3204;42.698;23.298;2024-01-10T12:57:05;13.17;;;10.37;;
6342;SDS011;3204;42.698;23.298;2024-01-10T12:59:32;15.90;;;11.37;;
6342;SDS011;3204;42.698;23.298;2024-01-10T13:01:57;16.37;;;10.43;;
6342;SDS011;3204;42.698;23.298;2024-01-10T13:04:23;15.67;;;11.00;;
6342;SDS011;3204;42.698;23.298;2024-01-10T13:06:49;16.13;;;10.67;;
6342;SDS011;3204;42.698;23.298;2024-01-10T13:09:14;14.37;;;9.77;;
6342;SDS011;3204;42.698;23.298;2024-01-10T13:11:40;12.03;;;10.70;;
6342;SDS011;3204;42.698;23.298;2024-01-10T13:14:05;14.23;;;10.90;;
6342;SDS011;3204;42.698;23.298;2024-01-10T13:16:31;16.97;;;10.27;;
6342;SDS011;3204;42.698;23.298;2024-01-10T13:18:56;12.37;;;10.50;;
6342;SDS011;3204;42.698;23.298;2024-01-10T13:21:23;14.67;;;10.43;;
6342;SDS011;3204;42.698;23.298;2024-01-10T13:23:49;13.73;;;10.47;;
6342;SDS011;3204;42.698;23.298;2024-01-10T13:26:16;13.83;;;9.90;;
6342;SDS011;3204;42.698;23.298;2024-01-10T13:28:41;17.13;;;10.43;;
6342;SDS011;3204;42.698;23.298;2024-01-10T13:31:08;13.93;;;10.13;;
6342;SDS011;3204;42.698;23.298;2024-01-10T13:33:34;12.97;;;9.60;;
6342;SDS011;3204;42.698;23.298;2024-01-10T13:36:00;17.53;;;11.50;;
6342;SDS011;3204;42.698;23.298;2024-01-10T13:38:26;14.10;;;9.93;;
6342;SDS011;3204;42.698;23.298;2024-01-10T13:40:51;14.30;;;11.10;;
6342;SDS011;3204;42.698;23.298;2024-01-10T13:43:17;20.20;;;12.20;;
6342;SDS011;3204;42.698;23.298;2024-01-10T13:45:43;17.93;;;11.70;;
6342;SDS011;3204;42.698;23.298;2024-01-10T13:48:08;19.07;;;11.67;;
6342;SDS011;3204;42.698;23.298;2024-01-10T13:50:35;18.23;;;11.17;;
6342;SDS011;3204;42.698;23.298;2024-01-10T13:53:01;12.90;;;10.80;;
6342;SDS011;3204;42.698;23.298;2024-01-10T13:55:28;13.70;;;10.70;;
6342;SDS011;3204;42.698;23.298;2024-01-10T13:57:53;15.60;;;11.93;;
6342;SDS011;3204;42.698;23.298;2024-01-10T14:00:19;18.27;;;11.90;;
6342;SDS011;3204;42.698;23.298;2024-01-10T14:02:45;15.40;;;11.30;;
6342;SDS011;3204;42.698;23.298;2024-01-10T14:05:11;13.50;;;10.73;;
6342;SDS011;3204;42.698;23.298;2024-01-10T14:07:36;18.30;;;11.90;;
6342;SDS011;3204;42.698;23.298;2024-01-10T14:10:02;18.63;;;12.30;;
6342;SDS011;3204;42.698;23.298;2024-01-10T14:12:28;18.67;;;11.20;;
6342;SDS011;3204;42.698;23.298;2024-01-10T14:14:56;26.47;;;13.37;;
6342;SDS011;3204;42.698;23.298;2024-01-10T14:17:22;19.63;;;12.20;;
6342;SDS011;3204;42.698;23.298;2024-01-10T14:19:50;17.80;;;11.43;;
6342;SDS011;3204;42.698;23.298;2024-01-10T14:22:16;15.93;;;11.70;;
6342;SDS011;3204;42.698;23.298;2024-01-10T14:24:42;14.90;;;11.77;;
6342;SDS011;3204;42.698;23.298;2024-01-10T14:27:08;13.37;;;10.93;;
6342;SDS011;3204;42.698;23.298;2024-01-10T14:29:34;16.70;;;10.90;;
6342;SDS011;3204;42.698;23.298;2024-01-10T14:31:59;17.43;;;11.47;;
6342;SDS011;3204;42.698;23.298;2024-01-10T14:34:24;17.70;;;11.60;;
6342;SDS011;3204;42.698;23.298;2024-01-10T14:36:50;20.13;;;11.57;;
6342;SDS011;3204;42.698;23.298;2024-01-10T14:39:15;16.97;;;11.57;;
6342;SDS011;3204;42.698;23.298;2024-01-10T14:41:41;17.90;;;10.67;;
6342;SDS011;3204;42.698;23.298;2024-01-10T14:44:06;15.73;;;10.53;;
6342;SDS011;3204;42.698;23.298;2024-01-10T14:46:32;13.40;;;10.20;;
6342;SDS011;3204;42.698;23.298;2024-01-10T14:48:57;13.97;;;10.27;;
6342;SDS011;3204;42.698;23.298;2024-01-10T14:51:22;20.97;;;11.07;;
6342;SDS011;3204;42.698;23.298;2024-01-10T14:53:48;16.47;;;10.60;;
6342;SDS011;3204;42.698;23.298;2024-01-10T14:56:14;17.80;;;11.40;;
6342;SDS011;3204;42.698;23.298;2024-01-10T14:58:39;21.03;;;12.00;;
6342;SDS011;3204;42.698;23.298;2024-01-10T15:01:11;24.03;;;12.03;;
6342;SDS011;3204;42.698;23.298;2024-01-10T15:03:37;20.07;;;11.33;;
6342;SDS011;3204;42.698;23.298;2024-01-10T15:06:05;19.97;;;12.80;;
6342;SDS011;3204;42.698;23.298;2024-01-10T15:08:31;23.17;;;13.13;;
6342;SDS011;3204;42.698;23.298;2024-01-10T15:10:58;21.27;;;12.40;;
6342;SDS011;3204;42.698;23.298;2024-01-10T15:13:24;18.80;;;12.43;;